Time;durP1;ratioP1;P1;durP2;ratioP2;P2;SDS_P1;SDS_P2;PMS_P1;PMS_P2;Temp;Humidity;BMP_temperature;BMP_pressure;BME280_temperature;BME280_humidity;BME280_pressure;Samples;Min_cycle;Max_cycle;Signal;HPM_P1;HPM_P2
2022/05/25 00:00:01;;;;;;;11.20;2.65;;;;;;;;;;5050843;28;20036;-66
2022/05/25 00:02:27;;;;;;;3.83;1.80;;;;;;;;;;5054801;28;20017;-66
2022/05/25 00:04:53;;;;;;;6.25;2.53;;;;;;;;;;5051296;28;20056;-66
2022/05/25 00:07:18;;;;;;;10.13;2.33;;;;;;;;;;5053645;28;20473;-66
2022/05/25 00:09:44;;;;;;;6.43;2.28;;;;;;;;;;5050715;28;20032;-65
2022/05/25 00:12:09;;;;;;;6.13;2.60;;;;;;;;;;5049961;28;20047;-65
2022/05/25 00:14:35;;;;;;;4.53;1.90;;;;;;;;;;5052167;28;20029;-65
2022/05/25 00:17:01;;;;;;;6.57;2.05;;;;;;;;;;5052130;28;20025;-65
2022/05/25 00:22:10;;;;;;;12.60;2.92;;;;;;;;;;5048339;28;20036;-66
2022/05/25 00:24:35;;;;;;;14.93;2.80;;;;;;;;;;5050139;28;20397;-65
2022/05/25 00:27:00;;;;;;;8.77;2.70;;;;;;;;;;5051694;28;20371;-65
2022/05/25 00:29:25;;;;;;;4.82;2.22;;;;;;;;;;5039966;28;20081;-65
2022/05/25 00:31:51;;;;;;;4.53;2.00;;;;;;;;;;5050715;28;20096;-66
2022/05/25 00:34:16;;;;;;;8.20;2.95;;;;;;;;;;5051826;28;20117;-66
2022/05/25 00:36:41;;;;;;;10.07;2.65;;;;;;;;;;5050577;28;20021;-66
2022/05/25 00:39:07;;;;;;;4.63;2.33;;;;;;;;;;5050573;28;20067;-66
2022/05/25 00:41:32;;;;;;;5.55;3.58;;;;;;;;;;5053015;28;20036;-65
2022/05/25 00:43:58;;;;;;;4.82;2.67;;;;;;;;;;5050424;28;20021;-65
2022/05/25 00:46:24;;;;;;;4.53;2.95;;;;;;;;;;5050941;28;20071;-65
2022/05/25 00:48:54;;;;;;;5.43;2.13;;;;;;;;;;5051130;28;20085;-66
2022/05/25 00:51:21;;;;;;;;;;;;;;;;;;5050990;28;20048;-66
2022/05/25 00:53:56;;;;;;;5.25;2.75;;;;;;;;;;5045437;28;19909;-66
2022/05/25 00:56:21;;;;;;;7.53;3.90;;;;;;;;;;5051342;28;20017;-66
2022/05/25 00:58:49;;;;;;;4.43;2.60;;;;;;;;;;5050311;28;20542;-66
2022/05/25 01:01:14;;;;;;;5.05;2.80;;;;;;;;;;5050097;28;20061;-66
2022/05/25 01:03:39;;;;;;;5.13;2.30;;;;;;;;;;5050323;28;21487;-65
2022/05/25 01:06:04;;;;;;;5.75;2.47;;;;;;;;;;5049939;28;20028;-65
2022/05/25 01:08:59;;;;;;;5.87;2.53;;;;;;;;;;5053503;28;20162;-66
2022/05/25 01:11:35;;;;;;;5.15;2.53;;;;;;;;;;4968738;28;20319;-66
2022/05/25 01:14:03;;;;;;;8.02;3.08;;;;;;;;;;5047257;28;20021;-65
2022/05/25 01:16:47;;;;;;;12.50;3.53;;;;;;;;;;5048211;28;20469;-66
2022/05/25 01:19:30;;;;;;;5.45;3.38;;;;;;;;;;5049925;28;20090;-65
2022/05/25 01:21:55;;;;;;;9.65;2.85;;;;;;;;;;5046670;28;20043;-65
2022/05/25 01:24:36;;;;;;;2.03;1.70;;;;;;;;;;5051850;28;20023;-66
2022/05/25 01:27:20;;;;;;;5.88;2.90;;;;;;;;;;5046016;28;20306;-65
2022/05/25 01:30:04;;;;;;;5.82;3.13;;;;;;;;;;5052760;28;20020;-65
2022/05/25 01:32:35;;;;;;;4.50;2.33;;;;;;;;;;5050082;28;20351;-65
2022/05/25 01:35:22;;;;;;;4.93;2.80;;;;;;;;;;5047755;28;20013;-65
2022/05/25 01:37:51;;;;;;;4.13;2.30;;;;;;;;;;5049958;28;20210;-66
2022/05/25 01:40:28;;;;;;;4.60;1.80;;;;;;;;;;5051992;28;20066;-66
2022/05/25 01:42:56;;;;;;;7.78;2.78;;;;;;;;;;5050025;28;20493;-65
2022/05/25 01:45:24;;;;;;;7.85;2.90;;;;;;;;;;5048928;28;20710;-65
2022/05/25 01:47:49;;;;;;;3.97;2.50;;;;;;;;;;5049707;28;20033;-66
2022/05/25 01:50:21;;;;;;;3.65;2.72;;;;;;;;;;5048751;28;20130;-65
2022/05/25 01:52:49;;;;;;;3.60;2.03;;;;;;;;;;5048548;28;20024;-66
2022/05/25 01:55:17;;;;;;;8.20;3.00;;;;;;;;;;5049931;28;20090;-65
2022/05/25 01:57:44;;;;;;;10.43;3.40;;;;;;;;;;5049568;28;20066;-66
2022/05/25 02:00:10;;;;;;;6.00;2.83;;;;;;;;;;5048835;28;20020;-65
2022/05/25 02:05:20;;;;;;;5.50;2.95;;;;;;;;;;5051628;28;20032;-66
2022/05/25 02:07:58;;;;;;;6.22;2.83;;;;;;;;;;5049395;28;20013;-66
2022/05/25 02:10:55;;;;;;;8.25;2.22;;;;;;;;;;5047752;28;20029;-66
2022/05/25 02:13:35;;;;;;;5.13;2.63;;;;;;;;;;5026001;28;20033;-65
2022/05/25 02:16:16;;;;;;;7.85;3.28;;;;;;;;;;5045073;28;20021;-66
2022/05/25 02:18:44;;;;;;;6.25;2.38;;;;;;;;;;5048748;28;20038;-65
2022/05/25 02:21:14;;;;;;;5.22;2.65;;;;;;;;;;5048032;28;21768;-66
2022/05/25 02:23:57;;;;;;;5.85;2.67;;;;;;;;;;5047297;28;20028;-65
2022/05/25 02:26:34;;;;;;;6.13;2.67;;;;;;;;;;5052183;28;20033;-65
2022/05/25 02:29:08;;;;;;;6.32;2.83;;;;;;;;;;5046742;28;20025;-65
2022/05/25 02:31:38;;;;;;;5.45;2.33;;;;;;;;;;5049399;28;20056;-65
2022/05/25 02:34:05;;;;;;;4.35;2.63;;;;;;;;;;5047346;28;20021;-65
2022/05/25 02:36:34;;;;;;;9.25;2.85;;;;;;;;;;5056978;28;20037;-65
2022/05/25 02:39:02;;;;;;;6.07;2.88;;;;;;;;;;5051963;28;20021;-65
2022/05/25 02:41:27;;;;;;;4.47;2.42;;;;;;;;;;5056040;28;20381;-66
2022/05/25 02:43:52;;;;;;;5.70;2.97;;;;;;;;;;5052892;28;20024;-64
2022/05/25 02:46:18;;;;;;;5.60;3.17;;;;;;;;;;5054981;28;20036;-65
2022/05/25 02:48:43;;;;;;;10.60;3.30;;;;;;;;;;5053086;28;20028;-65
2022/05/25 02:51:08;;;;;;;4.10;3.13;;;;;;;;;;5056868;28;20021;-65
2022/05/25 02:53:34;;;;;;;4.60;2.80;;;;;;;;;;5055776;28;20381;-65
2022/05/25 02:56:00;;;;;;;6.32;3.10;;;;;;;;;;5056583;28;20354;-66
2022/05/25 02:58:27;;;;;;;5.93;3.05;;;;;;;;;;5056501;28;20020;-65
2022/05/25 03:00:52;;;;;;;8.50;3.20;;;;;;;;;;5055150;28;20009;-65
2022/05/25 03:03:17;;;;;;;9.23;2.85;;;;;;;;;;5054885;28;20032;-65
2022/05/25 03:05:42;;;;;;;5.97;3.20;;;;;;;;;;5052236;28;20112;-65
2022/05/25 03:08:08;;;;;;;9.03;3.43;;;;;;;;;;5051631;28;20361;-65
2022/05/25 03:10:33;;;;;;;7.50;2.78;;;;;;;;;;5050474;28;20294;-65
2022/05/25 03:12:58;;;;;;;5.78;2.83;;;;;;;;;;5053246;28;20059;-65
2022/05/25 03:15:25;;;;;;;21.70;3.03;;;;;;;;;;5054829;28;20408;-65
2022/05/25 03:17:50;;;;;;;3.50;2.33;;;;;;;;;;5055251;28;20366;-66
2022/05/25 03:20:16;;;;;;;7.55;2.97;;;;;;;;;;5053754;28;20516;-65
2022/05/25 03:22:44;;;;;;;5.53;3.13;;;;;;;;;;5053453;28;20029;-66
2022/05/25 03:25:10;;;;;;;4.50;2.60;;;;;;;;;;5050356;28;20040;-64
2022/05/25 03:27:35;;;;;;;6.30;3.05;;;;;;;;;;5055157;28;20689;-65
2022/05/25 03:30:00;;;;;;;10.80;3.03;;;;;;;;;;5050929;28;20032;-65
2022/05/25 03:32:27;;;;;;;7.43;3.05;;;;;;;;;;5050831;28;20321;-65
2022/05/25 03:34:52;;;;;;;5.68;2.90;;;;;;;;;;5052896;28;20041;-65
2022/05/25 03:37:17;;;;;;;5.53;3.37;;;;;;;;;;5054350;28;20047;-65
2022/05/25 03:39:42;;;;;;;7.53;3.20;;;;;;;;;;5045851;28;20786;-65
2022/05/25 03:42:08;;;;;;;5.60;2.67;;;;;;;;;;5055650;28;20302;-65
2022/05/25 03:44:34;;;;;;;5.65;2.83;;;;;;;;;;5057185;28;20781;-65
2022/05/25 03:46:59;;;;;;;4.53;2.83;;;;;;;;;;5050202;28;20037;-65
2022/05/25 03:49:24;;;;;;;8.30;3.10;;;;;;;;;;5050659;28;20021;-65
2022/05/25 03:51:50;;;;;;;11.82;2.53;;;;;;;;;;5054134;28;20063;-65
2022/05/25 03:54:15;;;;;;;7.18;2.70;;;;;;;;;;5050186;28;20108;-66
2022/05/25 03:56:40;;;;;;;6.57;2.88;;;;;;;;;;5048288;28;20092;-66
2022/05/25 03:59:05;;;;;;;9.25;3.20;;;;;;;;;;5049902;28;20477;-65
2022/05/25 04:01:35;;;;;;;7.05;3.10;;;;;;;;;;5054164;28;20036;-66
2022/05/25 04:04:00;;;;;;;9.23;2.83;;;;;;;;;;5052108;28;20130;-65
2022/05/25 04:06:26;;;;;;;7.50;2.53;;;;;;;;;;5055047;28;20526;-65
2022/05/25 04:08:51;;;;;;;10.93;3.00;;;;;;;;;;5051532;28;20294;-65
2022/05/25 04:11:16;;;;;;;6.38;3.20;;;;;;;;;;5052862;28;20024;-65
2022/05/25 04:13:42;;;;;;;4.30;2.65;;;;;;;;;;5052625;28;20025;-65
2022/05/25 04:16:07;;;;;;;8.15;3.30;;;;;;;;;;5052326;28;20020;-65
2022/05/25 04:18:32;;;;;;;4.05;2.75;;;;;;;;;;5050005;28;20029;-65
2022/05/25 04:20:58;;;;;;;15.98;2.53;;;;;;;;;;5053461;28;20021;-65
2022/05/25 04:23:26;;;;;;;4.75;2.90;;;;;;;;;;5048120;28;20130;-65
2022/05/25 04:25:52;;;;;;;6.60;2.55;;;;;;;;;;5051208;28;20048;-65
2022/05/25 04:28:17;;;;;;;7.15;4.05;;;;;;;;;;5077362;22;20040;-71
2022/05/25 04:30:42;;;;;;;6.40;2.67;;;;;;;;;;5071612;28;20502;-72
2022/05/25 04:33:07;;;;;;;5.00;2.83;;;;;;;;;;5069182;28;20050;-71
2022/05/25 04:35:33;;;;;;;6.60;2.80;;;;;;;;;;5070830;28;20294;-71
2022/05/25 04:37:58;;;;;;;5.47;3.10;;;;;;;;;;5069113;28;20259;-71
2022/05/25 04:40:31;;;;;;;6.35;3.55;;;;;;;;;;5069685;28;20464;-71
2022/05/25 04:42:57;;;;;;;8.65;2.67;;;;;;;;;;5064866;28;20441;-71
2022/05/25 04:45:25;;;;;;;12.98;3.78;;;;;;;;;;5068792;28;20096;-69
2022/05/25 04:47:50;;;;;;;20.27;2.83;;;;;;;;;;5069512;28;20020;-68
2022/05/25 04:50:17;;;;;;;5.63;2.67;;;;;;;;;;5067257;28;20086;-69
2022/05/25 04:52:42;;;;;;;7.20;2.80;;;;;;;;;;5067327;28;20012;-70
2022/05/25 04:55:09;;;;;;;7.95;2.67;;;;;;;;;;5068930;28;20029;-69
2022/05/25 04:57:34;;;;;;;4.13;2.47;;;;;;;;;;5065082;28;20695;-68
2022/05/25 05:00:00;;;;;;;6.35;2.97;;;;;;;;;;5065689;28;20028;-69
2022/05/25 05:02:26;;;;;;;5.28;2.47;;;;;;;;;;5064976;28;20504;-70
2022/05/25 05:04:52;;;;;;;7.18;3.05;;;;;;;;;;5066430;28;20461;-70
2022/05/25 05:07:17;;;;;;;7.35;2.78;;;;;;;;;;5064696;28;20028;-71
2022/05/25 05:09:43;;;;;;;10.07;3.53;;;;;;;;;;5062968;28;20059;-71
2022/05/25 05:12:09;;;;;;;6.80;3.13;;;;;;;;;;5070138;28;20074;-71
2022/05/25 05:14:35;;;;;;;12.05;3.00;;;;;;;;;;5067536;28;20268;-71
2022/05/25 05:17:01;;;;;;;8.10;3.20;;;;;;;;;;5067513;28;20013;-71
2022/05/25 05:19:27;;;;;;;7.13;2.25;;;;;;;;;;5067884;28;20824;-71
2022/05/25 05:21:54;;;;;;;7.38;2.53;;;;;;;;;;5049933;28;20033;-71
2022/05/25 05:24:19;;;;;;;6.55;2.38;;;;;;;;;;5068126;28;20024;-71
2022/05/25 05:26:45;;;;;;;6.43;1.75;;;;;;;;;;5066161;28;20024;-71
2022/05/25 05:29:10;;;;;;;8.88;2.88;;;;;;;;;;5065798;28;20112;-71
2022/05/25 05:31:35;;;;;;;9.95;3.20;;;;;;;;;;5065370;28;20024;-71
2022/05/25 05:34:00;;;;;;;8.03;2.90;;;;;;;;;;5069198;28;20024;-71
2022/05/25 05:36:27;;;;;;;5.70;2.35;;;;;;;;;;5066120;28;20693;-71
2022/05/25 05:38:57;;;;;;;9.98;2.95;;;;;;;;;;5063682;28;20111;-71
2022/05/25 05:41:23;;;;;;;7.90;2.97;;;;;;;;;;5059984;28;20028;-71
2022/05/25 05:43:49;;;;;;;5.25;2.45;;;;;;;;;;5065069;28;20020;-71
2022/05/25 05:46:14;;;;;;;6.38;2.22;;;;;;;;;;5065665;28;20443;-71
2022/05/25 05:48:40;;;;;;;9.85;2.53;;;;;;;;;;5065396;28;20210;-71
2022/05/25 05:51:05;;;;;;;10.40;2.13;;;;;;;;;;5063120;28;20024;-71
2022/05/25 05:53:30;;;;;;;4.20;2.10;;;;;;;;;;5064165;28;20095;-71
2022/05/25 05:55:57;;;;;;;5.85;2.50;;;;;;;;;;5065728;28;20044;-71
2022/05/25 05:58:22;;;;;;;10.48;2.88;;;;;;;;;;5068397;28;20024;-71
2022/05/25 06:00:47;;;;;;;8.80;2.30;;;;;;;;;;5066441;28;20059;-71
2022/05/25 06:03:13;;;;;;;7.80;2.30;;;;;;;;;;5066393;28;20273;-71
2022/05/25 06:05:39;;;;;;;5.93;1.85;;;;;;;;;;5067782;28;20361;-71
2022/05/25 06:08:09;;;;;;;10.88;2.83;;;;;;;;;;5068966;28;20096;-71
2022/05/25 06:10:35;;;;;;;3.65;1.52;;;;;;;;;;5069147;28;20020;-71
2022/05/25 06:13:00;;;;;;;7.63;2.17;;;;;;;;;;5067817;28;20017;-71
2022/05/25 06:20:53;;;;;;;12.43;2.33;;;;;;;;;;5065740;28;20036;-71
2022/05/25 06:23:18;;;;;;;10.10;2.07;;;;;;;;;;5066191;28;20029;-71
2022/05/25 06:25:43;;;;;;;5.63;2.17;;;;;;;;;;5066918;28;20378;-71
2022/05/25 06:28:08;;;;;;;6.57;2.00;;;;;;;;;;5065648;28;20286;-70
2022/05/25 06:30:33;;;;;;;12.73;1.90;;;;;;;;;;5063853;28;20290;-70
2022/05/25 06:32:58;;;;;;;5.60;1.90;;;;;;;;;;5067815;28;20714;-70
2022/05/25 06:35:24;;;;;;;9.33;1.57;;;;;;;;;;5067019;28;20278;-70
2022/05/25 06:37:49;;;;;;;7.07;1.80;;;;;;;;;;5066123;28;20271;-71
2022/05/25 06:40:14;;;;;;;13.63;1.60;;;;;;;;;;5068832;28;20381;-71
2022/05/25 06:42:41;;;;;;;5.78;1.83;;;;;;;;;;5068240;28;20263;-71
2022/05/25 06:45:07;;;;;;;5.55;1.10;;;;;;;;;;5062469;28;20373;-71
2022/05/25 06:47:34;;;;;;;4.43;1.00;;;;;;;;;;5065859;28;20462;-71
2022/05/25 06:49:59;;;;;;;5.70;1.08;;;;;;;;;;5066130;28;20157;-71
2022/05/25 06:52:24;;;;;;;5.20;1.33;;;;;;;;;;5065807;28;20109;-71
2022/05/25 06:54:56;;;;;;;3.87;0.90;;;;;;;;;;5065260;28;20036;-71
2022/05/25 06:57:21;;;;;;;4.07;1.20;;;;;;;;;;5063490;28;20282;-71
2022/05/25 06:59:46;;;;;;;7.28;1.58;;;;;;;;;;5067435;28;20504;-71
2022/05/25 07:02:11;;;;;;;3.03;0.93;;;;;;;;;;5067133;28;20032;-71
2022/05/25 07:04:37;;;;;;;2.33;0.80;;;;;;;;;;5066356;28;20274;-71
2022/05/25 07:07:02;;;;;;;5.85;1.38;;;;;;;;;;5065674;28;20016;-71
2022/05/25 07:09:27;;;;;;;12.68;1.85;;;;;;;;;;5066084;28;20040;-71
2022/05/25 07:11:53;;;;;;;3.53;0.87;;;;;;;;;;5067597;28;20385;-71
2022/05/25 07:14:18;;;;;;;8.63;2.47;;;;;;;;;;5064068;28;20369;-71
2022/05/25 07:16:43;;;;;;;5.57;0.77;;;;;;;;;;5067076;28;20265;-71
2022/05/25 07:19:08;;;;;;;3.67;0.80;;;;;;;;;;5062502;28;20048;-71
2022/05/25 07:21:33;;;;;;;1.23;0.60;;;;;;;;;;5066679;28;20283;-71
2022/05/25 07:24:00;;;;;;;0.60;0.30;;;;;;;;;;5071121;28;20267;-71
2022/05/25 07:26:26;;;;;;;2.47;0.60;;;;;;;;;;5071977;28;20024;-71
2022/05/25 07:28:51;;;;;;;6.60;0.68;;;;;;;;;;5071093;28;20025;-71
2022/05/25 07:31:21;;;;;;;4.70;0.80;;;;;;;;;;5068903;28;20023;-71
2022/05/25 07:33:47;;;;;;;1.93;0.67;;;;;;;;;;5068865;28;20043;-71
2022/05/25 07:36:13;;;;;;;2.45;0.80;;;;;;;;;;5069277;28;20468;-72
2022/05/25 07:38:39;;;;;;;2.47;0.68;;;;;;;;;;5071307;28;20078;-72
2022/05/25 07:41:04;;;;;;;3.00;0.98;;;;;;;;;;5071893;28;20043;-72
2022/05/25 07:43:31;;;;;;;3.43;0.80;;;;;;;;;;5070075;28;20024;-72
2022/05/25 07:45:56;;;;;;;4.97;0.68;;;;;;;;;;5071640;28;20273;-72
2022/05/25 07:48:21;;;;;;;2.53;0.60;;;;;;;;;;5067608;28;20147;-72
2022/05/25 07:50:47;;;;;;;2.33;0.67;;;;;;;;;;5067684;28;20038;-72
2022/05/25 07:55:59;;;;;;;10.52;0.80;;;;;;;;;;5064505;28;20090;-72
2022/05/25 07:58:24;;;;;;;2.20;0.80;;;;;;;;;;5051598;28;20078;-72
2022/05/25 08:00:51;;;;;;;10.20;1.10;;;;;;;;;;5068421;28;20016;-72
2022/05/25 08:06:00;;;;;;;3.50;0.60;;;;;;;;;;5066290;28;20026;-72
2022/05/25 08:08:26;;;;;;;6.90;0.70;;;;;;;;;;5068992;28;20020;-72
2022/05/25 08:10:55;;;;;;;3.13;0.70;;;;;;;;;;5069881;28;20017;-72
2022/05/25 08:13:21;;;;;;;1.52;0.70;;;;;;;;;;5064946;28;20384;-71
2022/05/25 08:15:46;;;;;;;3.53;0.85;;;;;;;;;;5065884;28;20039;-72
2022/05/25 08:18:12;;;;;;;4.47;0.55;;;;;;;;;;5067356;28;20012;-71
2022/05/25 08:20:37;;;;;;;5.07;0.70;;;;;;;;;;5071209;28;20020;-72
2022/05/25 08:23:04;;;;;;;4.25;0.88;;;;;;;;;;5065416;28;20509;-71
2022/05/25 08:25:29;;;;;;;5.15;1.35;;;;;;;;;;5066202;28;20107;-71
2022/05/25 08:27:54;;;;;;;4.20;0.70;;;;;;;;;;5066678;28;20108;-71
2022/05/25 08:30:20;;;;;;;0.40;0.27;;;;;;;;;;5064140;28;20348;-71
2022/05/25 08:32:45;;;;;;;2.40;0.40;;;;;;;;;;5050064;28;20332;-71
2022/05/25 08:35:11;;;;;;;3.28;0.35;;;;;;;;;;5067802;28;20123;-71
2022/05/25 08:37:36;;;;;;;1.80;0.50;;;;;;;;;;5068792;28;20112;-71
2022/05/25 08:40:02;;;;;;;3.55;0.40;;;;;;;;;;5065848;28;20086;-71
2022/05/25 08:42:29;;;;;;;2.63;0.50;;;;;;;;;;5071352;28;20035;-71
2022/05/25 08:44:55;;;;;;;0.95;0.30;;;;;;;;;;5067376;28;20622;-71
2022/05/25 08:47:20;;;;;;;4.90;0.40;;;;;;;;;;5048612;28;20028;-72
2022/05/25 08:49:47;;;;;;;2.50;0.45;;;;;;;;;;5069088;28;20114;-72
2022/05/25 08:52:21;;;;;;;2.90;0.45;;;;;;;;;;5069185;28;20016;-71
2022/05/25 08:54:47;;;;;;;1.55;0.32;;;;;;;;;;5069399;28;20024;-71
2022/05/25 08:57:14;;;;;;;2.25;0.50;;;;;;;;;;5067719;28;20020;-71
2022/05/25 08:59:46;;;;;;;0.93;0.40;;;;;;;;;;5065442;28;20047;-71
2022/05/25 09:02:12;;;;;;;3.25;0.60;;;;;;;;;;5066315;28;20036;-72
2022/05/25 09:04:58;;;;;;;1.88;0.50;;;;;;;;;;5068756;28;20174;-72
2022/05/25 09:07:33;;;;;;;3.17;0.73;;;;;;;;;;5055059;28;20028;-72
2022/05/25 09:09:58;;;;;;;1.27;0.40;;;;;;;;;;5068189;28;20031;-72
2022/05/25 09:12:29;;;;;;;0.30;0.20;;;;;;;;;;5069777;28;20016;-71
2022/05/25 09:14:58;;;;;;;2.10;0.50;;;;;;;;;;5063523;28;20698;-71
2022/05/25 09:17:25;;;;;;;3.70;0.50;;;;;;;;;;5061416;28;20098;-71
2022/05/25 09:19:51;;;;;;;2.40;0.32;;;;;;;;;;5068553;28;20024;-72
2022/05/25 09:22:22;;;;;;;1.30;0.30;;;;;;;;;;5065261;28;20485;-71
2022/05/25 09:24:49;;;;;;;2.53;0.30;;;;;;;;;;5065283;28;20024;-72
2022/05/25 09:27:15;;;;;;;2.00;0.38;;;;;;;;;;5066143;28;20078;-72
2022/05/25 09:29:41;;;;;;;0.77;0.38;;;;;;;;;;5061562;28;20500;-71
2022/05/25 09:32:25;;;;;;;1.00;0.30;;;;;;;;;;5041130;28;20415;-71
2022/05/25 09:34:53;;;;;;;0.93;0.32;;;;;;;;;;5064046;28;20039;-71
2022/05/25 09:37:25;;;;;;;12.30;0.43;;;;;;;;;;5058771;28;20117;-72
2022/05/25 09:39:51;;;;;;;2.70;0.45;;;;;;;;;;5065260;28;20481;-72
2022/05/25 09:42:18;;;;;;;1.17;0.20;;;;;;;;;;5065368;28;20043;-71
2022/05/25 09:44:47;;;;;;;5.63;0.45;;;;;;;;;;5061334;28;20500;-72
2022/05/25 09:47:22;;;;;;;0.73;0.30;;;;;;;;;;5067045;28;20036;-71
2022/05/25 09:49:48;;;;;;;1.08;0.22;;;;;;;;;;5066903;28;20024;-71
2022/05/25 09:52:13;;;;;;;2.05;0.45;;;;;;;;;;5067566;28;20645;-71
2022/05/25 09:55:02;;;;;;;1.20;0.40;;;;;;;;;;5065931;28;20040;-71
2022/05/25 09:57:39;;;;;;;0.73;0.20;;;;;;;;;;5063886;28;20473;-71
2022/05/25 10:00:14;;;;;;;0.57;0.38;;;;;;;;;;5063557;28;20029;-71
2022/05/25 10:02:48;;;;;;;1.70;0.20;;;;;;;;;;5068335;28;20574;-71
2022/05/25 10:05:23;;;;;;;1.88;0.43;;;;;;;;;;5068412;28;20020;-72
2022/05/25 10:07:51;;;;;;;1.17;0.30;;;;;;;;;;5068543;28;20029;-72
2022/05/25 10:10:22;;;;;;;2.22;0.43;;;;;;;;;;5067059;28;20051;-72
2022/05/25 10:12:57;;;;;;;1.27;0.35;;;;;;;;;;5067932;28;20021;-72
2022/05/25 10:15:35;;;;;;;4.22;0.40;;;;;;;;;;5067434;28;20024;-72
2022/05/25 10:18:00;;;;;;;6.32;0.60;;;;;;;;;;5066901;28;20019;-72
2022/05/25 10:20:30;;;;;;;0.90;0.20;;;;;;;;;;5068997;28;20020;-72
2022/05/25 10:22:57;;;;;;;;;;;;;;;;;;5068159;28;20038;-72
2022/05/25 10:25:45;;;;;;;1.75;0.28;;;;;;;;;;5067772;28;19916;-72
2022/05/25 10:36:53;;;;;;;3.63;0.55;;;;;;;;;;5050305;28;20072;-66
2022/05/25 10:39:27;;;;;;;1.30;0.40;;;;;;;;;;5042115;28;20082;-66
2022/05/25 10:42:04;;;;;;;4.47;0.68;;;;;;;;;;5046461;28;20101;-66
2022/05/25 10:44:32;;;;;;;2.92;0.30;;;;;;;;;;5046558;28;20029;-66
2022/05/25 10:46:57;;;;;;;1.45;0.30;;;;;;;;;;5047694;28;20025;-66
2022/05/25 10:49:34;;;;;;;2.30;0.20;;;;;;;;;;5048588;28;20415;-66
2022/05/25 10:52:08;;;;;;;1.17;0.35;;;;;;;;;;5041169;28;20024;-67
2022/05/25 10:54:45;;;;;;;2.08;0.43;;;;;;;;;;5043595;28;20017;-67
2022/05/25 10:57:31;;;;;;;1.15;0.30;;;;;;;;;;5048787;28;20032;-67
2022/05/25 10:59:56;;;;;;;1.63;0.65;;;;;;;;;;5048656;28;20459;-67
2022/05/25 11:02:40;;;;;;;1.08;0.30;;;;;;;;;;5055803;28;20104;-67
2022/05/25 11:05:24;;;;;;;0.90;0.20;;;;;;;;;;5050395;28;20021;-67
2022/05/25 11:07:51;;;;;;;2.50;0.80;;;;;;;;;;5048626;28;20052;-67
2022/05/25 11:10:19;;;;;;;2.45;0.43;;;;;;;;;;5055541;28;20025;-67
2022/05/25 11:12:47;;;;;;;0.82;0.30;;;;;;;;;;5053020;28;20492;-67
2022/05/25 11:15:32;;;;;;;1.13;0.30;;;;;;;;;;5051459;28;20043;-67
2022/05/25 11:18:07;;;;;;;0.88;0.43;;;;;;;;;;5051524;28;20535;-67
2022/05/25 11:20:32;;;;;;;2.20;0.40;;;;;;;;;;5050840;28;20033;-67
2022/05/25 11:23:16;;;;;;;1.33;0.20;;;;;;;;;;5051872;28;20670;-67
2022/05/25 11:25:51;;;;;;;4.88;0.47;;;;;;;;;;5050335;28;20612;-67
2022/05/25 11:28:34;;;;;;;2.65;0.30;;;;;;;;;;5052726;28;20033;-67
2022/05/25 11:31:09;;;;;;;2.40;0.38;;;;;;;;;;5049645;28;20201;-67
2022/05/25 11:33:46;;;;;;;2.35;0.43;;;;;;;;;;5053220;28;20025;-67
2022/05/25 11:36:21;;;;;;;3.40;0.40;;;;;;;;;;5053262;28;20017;-66
2022/05/25 11:38:50;;;;;;;3.78;0.50;;;;;;;;;;5048947;28;20033;-67
2022/05/25 11:41:34;;;;;;;1.00;0.40;;;;;;;;;;5050342;28;20025;-66
2022/05/25 11:43:59;;;;;;;4.38;0.40;;;;;;;;;;5047128;28;20558;-67
2022/05/25 11:46:30;;;;;;;3.43;0.47;;;;;;;;;;5049886;28;20016;-68
2022/05/25 11:48:58;;;;;;;1.38;0.40;;;;;;;;;;5049804;28;20067;-67
2022/05/25 11:51:27;;;;;;;5.65;0.50;;;;;;;;;;5055031;28;20016;-67
2022/05/25 11:54:01;;;;;;;3.97;0.88;;;;;;;;;;5049200;28;20493;-67
2022/05/25 11:56:40;;;;;;;1.67;0.40;;;;;;;;;;5047629;28;20469;-68
2022/05/25 11:59:08;;;;;;;3.70;0.40;;;;;;;;;;5048405;28;20146;-67
2022/05/25 12:01:38;;;;;;;7.65;0.65;;;;;;;;;;5050131;28;20025;-68
2022/05/25 12:04:22;;;;;;;2.63;0.32;;;;;;;;;;5049515;28;20116;-67
2022/05/25 12:07:08;;;;;;;1.30;0.30;;;;;;;;;;5051405;28;20108;-68
2022/05/25 12:09:45;;;;;;;2.30;0.47;;;;;;;;;;5041161;28;20044;-67
2022/05/25 12:12:11;;;;;;;3.50;0.43;;;;;;;;;;5050883;28;20009;-67
2022/05/25 12:14:54;;;;;;;4.32;0.70;;;;;;;;;;5051779;28;20020;-67
2022/05/25 12:17:31;;;;;;;2.85;0.40;;;;;;;;;;5049632;28;20017;-67
2022/05/25 12:19:58;;;;;;;5.70;0.40;;;;;;;;;;5045131;28;20120;-67
2022/05/25 12:22:28;;;;;;;1.95;0.60;;;;;;;;;;5051642;28;20048;-67
2022/05/25 12:24:56;;;;;;;6.38;0.45;;;;;;;;;;5050508;28;20013;-67
2022/05/25 12:27:23;;;;;;;1.30;0.30;;;;;;;;;;5048557;28;20025;-68
2022/05/25 12:29:50;;;;;;;2.33;0.40;;;;;;;;;;5013324;28;1055227;-68
2022/05/25 12:32:16;;;;;;;3.90;0.38;;;;;;;;;;5045572;28;20060;-68
2022/05/25 12:34:50;;;;;;;2.10;0.38;;;;;;;;;;5050100;28;20170;-68
2022/05/25 12:37:21;;;;;;;2.08;0.47;;;;;;;;;;5050746;28;20033;-68
2022/05/25 12:39:46;;;;;;;0.75;0.25;;;;;;;;;;5048367;28;20021;-68
2022/05/25 12:42:24;;;;;;;5.20;0.70;;;;;;;;;;5045524;28;20374;-68
2022/05/25 12:50:50;;;;;;;;;;;;;;;;;;5050214;28;20569;-68
2022/05/25 12:53:20;;;;;;;2.67;0.63;;;;;;;;;;5049568;28;19999;-68
2022/05/25 12:55:45;;;;;;;;;;;;;;;;;;5047495;28;20031;-68
2022/05/25 12:58:30;;;;;;;1.83;0.40;;;;;;;;;;5051217;28;19909;-68
2022/05/25 13:01:04;;;;;;;2.00;0.30;;;;;;;;;;5051127;28;20020;-67
2022/05/25 13:03:37;;;;;;;3.00;0.63;;;;;;;;;;5046987;28;20048;-67
2022/05/25 13:06:05;;;;;;;4.90;0.73;;;;;;;;;;5048626;28;20507;-67
2022/05/25 13:08:48;;;;;;;5.00;0.50;;;;;;;;;;5049372;28;20036;-68
2022/05/25 13:11:32;;;;;;;1.48;0.20;;;;;;;;;;5047455;28;20048;-67
2022/05/25 13:14:01;;;;;;;0.80;0.40;;;;;;;;;;5043996;28;20155;-67
2022/05/25 13:16:52;;;;;;;7.37;0.40;;;;;;;;;;5046836;28;20417;-67
2022/05/25 13:22:02;;;;;;;5.30;0.65;;;;;;;;;;5052285;28;20468;-67
2022/05/25 13:24:33;;;;;;;3.88;1.00;;;;;;;;;;5047530;28;20096;-67
2022/05/25 13:26:59;;;;;;;0.80;0.30;;;;;;;;;;5049640;28;20024;-67
2022/05/25 13:29:31;;;;;;;2.30;0.30;;;;;;;;;;5047700;28;20027;-66
2022/05/25 13:32:13;;;;;;;1.98;0.50;;;;;;;;;;5046423;28;20081;-67
2022/05/25 13:34:39;;;;;;;2.97;0.60;;;;;;;;;;5053707;28;20417;-67
2022/05/25 13:37:06;;;;;;;3.92;0.60;;;;;;;;;;5048616;28;20207;-67
2022/05/25 13:39:32;;;;;;;3.17;0.40;;;;;;;;;;5056358;28;20051;-67
2022/05/25 13:42:08;;;;;;;2.92;0.50;;;;;;;;;;5052100;28;20485;-66
2022/05/25 13:44:39;;;;;;;1.17;0.57;;;;;;;;;;5052002;28;20540;-66
2022/05/25 13:47:04;;;;;;;4.85;1.40;;;;;;;;;;5050098;28;20025;-67
2022/05/25 13:49:33;;;;;;;3.40;0.50;;;;;;;;;;5051397;28;20089;-67
2022/05/25 13:52:13;;;;;;;3.00;0.40;;;;;;;;;;5051350;28;20267;-67
2022/05/25 13:54:39;;;;;;;1.58;0.45;;;;;;;;;;5051084;28;20083;-67
2022/05/25 13:57:07;;;;;;;0.90;0.40;;;;;;;;;;5051069;28;20423;-66
2022/05/25 13:59:34;;;;;;;6.13;0.55;;;;;;;;;;5047560;28;20390;-67
2022/05/25 14:02:18;;;;;;;3.25;0.40;;;;;;;;;;5049461;28;20021;-66
2022/05/25 14:04:44;;;;;;;1.67;0.55;;;;;;;;;;5050679;28;20500;-67
2022/05/25 14:07:09;;;;;;;1.83;0.60;;;;;;;;;;5049316;28;20029;-67
2022/05/25 14:12:19;;;;;;;2.65;0.70;;;;;;;;;;5051248;28;20079;-67
2022/05/25 14:14:52;;;;;;;5.28;0.70;;;;;;;;;;5052085;28;20016;-67
2022/05/25 14:17:21;;;;;;;2.95;1.00;;;;;;;;;;5049251;28;20239;-67
2022/05/25 14:19:59;;;;;;;2.55;0.60;;;;;;;;;;5052783;28;20437;-67
2022/05/25 14:22:29;;;;;;;2.95;0.80;;;;;;;;;;5045585;28;20024;-67
2022/05/25 14:24:55;;;;;;;1.02;0.38;;;;;;;;;;5046148;28;20025;-67
2022/05/25 14:27:26;;;;;;;2.20;0.93;;;;;;;;;;5048500;28;20046;-67
2022/05/25 14:29:52;;;;;;;3.15;0.70;;;;;;;;;;5047761;28;20036;-67
2022/05/25 14:32:25;;;;;;;2.20;0.43;;;;;;;;;;5050613;28;20488;-67
2022/05/25 14:34:52;;;;;;;4.18;0.80;;;;;;;;;;5053760;28;20009;-67
2022/05/25 14:37:18;;;;;;;5.03;0.60;;;;;;;;;;5048451;28;20009;-67
2022/05/25 14:39:44;;;;;;;3.40;0.90;;;;;;;;;;5054196;28;20032;-67
2022/05/25 14:42:09;;;;;;;2.53;0.98;;;;;;;;;;5055972;28;20489;-67
2022/05/25 14:44:40;;;;;;;2.50;0.50;;;;;;;;;;5054460;28;20263;-67
2022/05/25 14:47:13;;;;;;;7.20;0.60;;;;;;;;;;5048483;28;20021;-67
2022/05/25 14:49:39;;;;;;;3.30;0.70;;;;;;;;;;5054034;28;20032;-68
2022/05/25 14:52:09;;;;;;;2.17;0.70;;;;;;;;;;5050082;28;20021;-67
2022/05/25 14:54:34;;;;;;;;;;;;;;;;;;5048074;28;20029;-67
2022/05/25 14:57:02;;;;;;;1.40;0.70;;;;;;;;;;5057442;28;19909;-67
2022/05/25 14:59:28;;;;;;;4.50;0.70;;;;;;;;;;5053269;28;20021;-67
2022/05/25 15:01:55;;;;;;;1.15;0.45;;;;;;;;;;5048755;28;20017;-67
2022/05/25 15:04:29;;;;;;;3.45;0.70;;;;;;;;;;5049230;28;20071;-67
2022/05/25 15:06:56;;;;;;;6.95;0.63;;;;;;;;;;5049558;28;20024;-67
2022/05/25 15:09:23;;;;;;;6.05;0.50;;;;;;;;;;5033238;28;20017;-67
2022/05/25 15:12:00;;;;;;;4.70;0.70;;;;;;;;;;5033679;28;20021;-67
2022/05/25 15:20:10;;;;;;;5.78;0.55;;;;;;;;;;5050031;28;20500;-67
2022/05/25 15:22:56;;;;;;;1.88;0.55;;;;;;;;;;5052680;28;20067;-67
2022/05/25 15:25:31;;;;;;;5.45;0.50;;;;;;;;;;5052957;28;20577;-67
2022/05/25 15:28:01;;;;;;;2.45;0.70;;;;;;;;;;5053023;28;20389;-67
2022/05/25 15:30:38;;;;;;;9.85;0.95;;;;;;;;;;5051883;28;20091;-67
2022/05/25 15:33:04;;;;;;;3.72;0.70;;;;;;;;;;5050102;28;20047;-67
2022/05/25 15:35:29;;;;;;;5.88;0.80;;;;;;;;;;5052775;28;20013;-67